Laurence M. Gould — WCX7445 — position and weather

sailwx.info

Track history (hours):
 
Tides and Currents Weather Stations Pressure Air Temp Water Temp Dewpoint Dewpoint Depression Visibility Wind Speed Wind Dir Waves Ship Positions

Oceanographic research ship Laurence M. Gould (USA)

Detailed information on ship capabilities available from University of Delaware's Ocean Information Center.

Owner: Offshore Service Vessels LLC, Cut Off, LA. More information available from US FCC via Universal Licensing System and Coast Guard Vessel Documentation Center.

Last reported at 2019-Jul-22 18:00 UTC. Time now 2019-Jul-22 18:37 UTC.
Position S 53°06' W 070°54'.

Type: Ship. MMSI: 368138000.

Wind from 280 at 19 knots

Barometer 997.4 mb
Air temperature 4.0 ° C
Dewpoint 0.7 ° C

Date/timePositionNaut miles runAvg speedWind from/ knotsBaromVisibWave heightAir tempDewpointWater temp
2019-Jul-22 18:00S 53°06' W 070°54'0 0.0 280 / 19997.4 4.0 0.7
2019-Jul-22 17:00S 53°06' W 070°54'0 0.0 280 / 23997.3 5.0 0.4
2019-Jul-22 16:00S 53°06' W 070°54'0 0.0 270 / 24997.8 5.3 0.6
2019-Jul-22 15:00S 53°06' W 070°54'0 0.0 270 / 24997.4 5.1 0.6
2019-Jul-22 14:00S 53°06' W 070°54'0 0.0 270 / 21997.3 4.8 0.9
2019-Jul-22 13:00S 53°06' W 070°54'0 0.0 270 / 23996.8 4.5 0.8
2019-Jul-22 12:00S 53°06' W 070°54'0 0.0 270 / 23996.7 4.3 0.9
2019-Jul-22 11:00S 53°06' W 070°54'0 0.0 270 / 21996.9 4.4 0.7
2019-Jul-22 10:00S 53°06' W 070°54'0 0.0 280 / 15996.9 4.3 0.4
2019-Jul-22 09:00S 53°06' W 070°54'0 0.0 290 / 11997.2 4.1 0.3
2019-Jul-22 08:00S 53°06' W 070°54'0 0.0 300 / 10997.0 3.8 0.4
2019-Jul-22 07:00S 53°06' W 070°54'0 0.0 300 / 12996.7 3.7 0.3
2019-Jul-22 06:00S 53°06' W 070°54'0 0.0 280 / 13996.6 3.6-0.1
2019-Jul-22 05:00S 53°06' W 070°54'0 0.0 280 / 9996.8 3.3-0.4
2019-Jul-22 04:00S 53°06' W 070°54'0 0.0 280 / 10996.8 3.2-0.7
2019-Jul-22 03:00S 53°06' W 070°54'0 0.0 280 / 11996.3 3.3-0.6
2019-Jul-22 02:00S 53°06' W 070°54'0 0.0 270 / 14995.8 3.5-0.2
2019-Jul-22 01:00S 53°06' W 070°54'0 0.0 280 / 15995.5 3.4-0.2
2019-Jul-22 00:00S 53°06' W 070°54'0 0.0 270 / 15995.1 3.4-0.8
2019-Jul-21 23:00S 53°06' W 070°54'0 0.0 280 / 7995.2 3.5-1.9
2019-Jul-21 22:00S 53°06' W 070°54'0 0.0 310 / 3995.1 3.5-2.5
2019-Jul-21 21:00S 53°06' W 070°54'0 0.0 270 / 8994.4 3.8-2.0
2019-Jul-21 20:00S 53°06' W 070°54'0 0.0 270 / 11993.6 3.7-1.4
2019-Jul-21 19:00S 53°06' W 070°54'0 0.0 270 / 10993.4 4.2-1.3
2019-Jul-21 18:00S 53°06' W 070°54'0 0.0 280 / 8993.6 4.5-1.2
2019-Jul-21 17:00S 53°06' W 070°54'0 0.0 280 / 8993.6 4.9-1.8
2019-Jul-21 16:00S 53°06' W 070°54'0 0.0 270 / 9993.4 4.7-2.1
2019-Jul-21 15:00S 53°06' W 070°54'0 0.0 260 / 10992.8 4.6-0.9
2019-Jul-21 14:00S 53°06' W 070°54'0 0.0 270 / 8991.9 3.2-0.6
2019-Jul-21 13:00S 53°06' W 070°54'0 0.0 280 / 6990.7 3.1-0.8
2019-Jul-21 12:00S 53°06' W 070°54'0 0.0 280 / 9989.9 3.3-0.7
2019-Jul-21 11:00S 53°06' W 070°54'0 0.0 280 / 12989.1 3.2-0.4
2019-Jul-21 10:00S 53°06' W 070°54'0 0.0 260 / 12988.5 3.4-0.5
2019-Jul-21 09:00S 53°06' W 070°54'0 0.0 260 / 10988.0 3.3-0.7
2019-Jul-21 08:00S 53°06' W 070°54'0 0.0 270 / 6987.4 2.9-1.0
2019-Jul-21 07:00S 53°06' W 070°54'0 0.0 280 / 7986.8 1.9-1.4
2019-Jul-21 06:00S 53°06' W 070°54'0 0.0 280 / 9986.4 2.1-1.3
2019-Jul-21 05:00S 53°06' W 070°54'0 0.0 260 / 8986.0 2.3-1.2
2019-Jul-21 04:00S 53°06' W 070°54'0 0.0 220 / 4985.0 2.4-1.1
2019-Jul-21 03:00S 53°06' W 070°54'0 0.0 240 / 4983.9 2.7-0.4
2019-Jul-21 02:00S 53°06' W 070°54'0 0.0 220 / 11982.7 3.1-0.0
2019-Jul-21 01:00S 53°06' W 070°54'0 0.0 210 / 13981.8 2.7 0.6
2019-Jul-21 00:00S 53°06' W 070°54'0 0.0 220 / 5980.8 2.5 1.1
2019-Jul-20 23:00S 53°06' W 070°54'0 0.0 030 / 7980.2 1.7 0.4
2019-Jul-20 22:00S 53°06' W 070°54'0 0.0 020 / 9980.2 2.2-0.5
2019-Jul-20 21:00S 53°06' W 070°54'0 0.0 020 / 9980.8 3.5-1.2
2019-Jul-20 20:00S 53°06' W 070°54'0 0.0 020 / 12981.4 3.7-1.5
2019-Jul-20 19:00S 53°06' W 070°54'0 0.0 030 / 9982.1 3.2-1.4
2019-Jul-20 18:00S 53°06' W 070°54'0 0.0 010 / 9982.7 3.2-1.6
2019-Jul-20 17:00S 53°06' W 070°54'0 0.0 010 / 7983.7 3.5-1.6
2019-Jul-20 16:00S 53°06' W 070°54'0 0.0 010 / 7984.5 3.2-1.8
2019-Jul-20 15:00S 53°06' W 070°54'0 0.0 040 / 9985.2 1.8-1.6
2019-Jul-20 14:00S 53°06' W 070°54'0 0.0 350 / 7985.0 1.9-1.6
2019-Jul-20 13:00S 53°06' W 070°54'0 0.0 020 / 5985.0 1.9-1.5
2019-Jul-20 12:00S 53°06' W 070°54'0 0.0 020 / 7984.9 1.3-1.6
2019-Jul-20 11:00S 53°06' W 070°54'0 0.0 030 / 10984.8 1.4-2.0
2019-Jul-20 10:00S 53°06' W 070°54'0 0.0 040 / 10985.0 1.8-1.7
2019-Jul-20 09:00S 53°06' W 070°54'0 0.0 030 / 9985.4 2.3-1.5
2019-Jul-20 08:00S 53°06' W 070°54'0 0.0 040 / 6985.3 2.5-1.6
2019-Jul-20 07:00S 53°06' W 070°54'0 0.0 050 / 8985.5 2.7-1.4
2019-Jul-20 06:00S 53°06' W 070°54'0 0.0 040 / 7985.8 3.0-1.3
2019-Jul-20 05:00S 53°06' W 070°54'0 0.0 060 / 5986.1 3.0-1.2
2019-Jul-20 04:00S 53°06' W 070°54'0 0.0 020 / 5986.3 3.2-0.9
2019-Jul-20 03:00S 53°06' W 070°54'0 0.0 010 / 5986.0 3.7-0.6
2019-Jul-20 02:00S 53°06' W 070°54'0 0.0 320 / 6985.8 4.1-0.8
2019-Jul-20 01:00S 53°06' W 070°54'0 0.0 280 / 14985.1 3.7-0.8
2019-Jul-20 00:00S 53°06' W 070°54'0 0.0 260 / 10984.5 4.1-0.6
2019-Jul-19 23:00S 53°06' W 070°54'0 0.0 270 / 12983.6 4.0-0.5
2019-Jul-19 22:00S 53°06' W 070°54'0 0.0 270 / 12982.7 4.0-0.1
2019-Jul-19 21:00S 53°06' W 070°54'0 0.0 290 / 10981.8 4.5-0.2
2019-Jul-19 20:00S 53°06' W 070°54'0 0.0 320 / 7980.8 5.5-0.9
2019-Jul-19 19:00S 53°06' W 070°54'0 0.0 330 / 7980.6 6.1-1.3
2019-Jul-19 18:00S 53°06' W 070°54'0 0.0 030 / 7980.9 5.7-0.1
2019-Jul-19 17:00S 53°06' W 070°54'0 0.0 010 / 7980.3 5.5-0.0
2019-Jul-19 16:00S 53°06' W 070°54'0 0.0 030 / 9980.4 4.9-0.2
2019-Jul-19 15:00S 53°06' W 070°54'0 0.0 020 / 5980.4 5.5-0.8
2019-Jul-19 14:00S 53°06' W 070°54'0 0.0 030 / 9979.4 4.1-1.0
2019-Jul-19 13:00S 53°06' W 070°54'0 0.0 300 / 21977.7 3.8-0.7
2019-Jul-19 12:00S 53°06' W 070°54'0 0.0 290 / 23977.2 3.8-0.4
2019-Jul-19 11:00S 53°06' W 070°54'0 0.0 300 / 24976.9 3.5 0.1
2019-Jul-19 10:00S 53°06' W 070°54'0 0.0 310 / 27976.2 3.3 0.5
2019-Jul-19 09:00S 53°06' W 070°54'0 0.0 320 / 29975.8 3.0 0.4
2019-Jul-19 08:00S 53°06' W 070°54'0 0.0 350 / 13977.3 3.2-1.1
2019-Jul-19 07:00S 53°06' W 070°54'0 0.0 010 / 8977.9 2.2-1.1
2019-Jul-19 06:00S 53°06' W 070°54'0 0.0 030 / 10978.6 1.0-1.3
2019-Jul-19 05:00S 53°06' W 070°54'0 0.0 020 / 10979.5 1.5-1.3
2019-Jul-19 04:00S 53°06' W 070°54'0 0.0 020 / 6980.3 1.8-0.4
2019-Jul-19 03:00S 53°06' W 070°54'0 0.0 020 / 6981.1 2.3 0.1
2019-Jul-19 02:00S 53°06' W 070°54'0 0.0 020 / 10981.3 2.1 0.2
2019-Jul-19 01:00S 53°06' W 070°54'0 0.0 020 / 7981.8 2.4 0.3
2019-Jul-19 00:00S 53°06' W 070°54'0 0.0 350 / 4982.0 2.6 0.1
2019-Jul-18 23:00S 53°06' W 070°54'0 0.0 040 / 7983.4 2.5-0.0
2019-Jul-18 22:00S 53°06' W 070°54'0 0.0 030 / 6983.8 3.2-0.3
2019-Jul-18 21:00S 53°06' W 070°54'0 0.0 020 / 7984.3 3.5-1.1
2019-Jul-18 20:00S 53°06' W 070°54'0 0.0 030 / 10985.3 3.9-1.8
2019-Jul-18 19:00S 53°06' W 070°54'0 0.0 020 / 12985.9 4.7-2.2
2019-Jul-18 18:00S 53°06' W 070°54'0 0.0 020 / 17988.1 4.5-1.8
2019-Jul-18 17:00S 53°06' W 070°54'0 0.0 030 / 12990.5 3.6-1.3
2019-Jul-18 16:00S 53°06' W 070°54'0 0.0 020 / 10992.2 2.3-0.7
2019-Jul-18 15:00S 53°06' W 070°54'0 0.0 020 / 8993.2 1.7-1.3
2019-Jul-18 14:00S 53°06' W 070°54'0 0.0 020 / 5994.1 1.4-1.4
2019-Jul-18 13:00S 53°06' W 070°54'0 0.0 010 / 7994.7 1.9-1.3
2019-Jul-18 12:00S 53°06' W 070°54'7 7.0 350 / 9995.6 4.1-0.3
2019-Jul-18 11:00S 53°12' W 070°48'1212.0 020 / 7996.2 4.6 0.2
2019-Jul-18 10:00S 53°24' W 070°48'6 6.0 350 / 6996.7 3.4-0.0
2019-Jul-18 09:00S 53°30' W 070°48'1212.0 330 / 6997.0 2.8-0.4
2019-Jul-18 08:00S 53°42' W 070°48'7 7.0 010 / 4997.0 3.5-0.8
2019-Jul-18 07:00S 53°48' W 070°54'7 7.1 350 / 6997.2 2.9-1.2
2019-Jul-18 06:00S 53°48' W 071°06'1110.6 020 / 4997.3 4.4-2.2
2019-Jul-18 05:00S 53°48' W 071°24'7 7.1 330 / 4997.5 4.5-1.9
2019-Jul-18 04:00S 53°48' W 071°36'9 9.3 350 / 7996.9 4.5-2.1
2019-Jul-18 03:00S 53°42' W 071°48'7 7.1 320 / 8996.8 4.3-1.9
2019-Jul-18 02:00S 53°42' W 072°00'1616.1 340 / 11996.9 3.6-1.6
2019-Jul-18 01:00S 53°30' W 072°18'1110.7 020 / 8996.4 4.0-1.4
2019-Jul-18 00:00S 53°30' W 072°36'1212.3 110 / 11995.5 4.6-1.3
2019-Jul-17 23:00S 53°24' W 072°54'1414.0 140 / 15994.6 6.1-1.5
2019-Jul-17 22:00S 53°12' W 073°06'9 9.4 080 / 9994.4 5.6-2.3
2019-Jul-17 21:00S 53°06' W 073°18'1212.4 120 / 9993.8 6.7-1.4
2019-Jul-17 20:00S 53°00' W 073°36'9 9.4 020 / 12993.3 6.0-2.6
2019-Jul-17 19:00S 52°54' W 073°48'1312.5 050 / 14993.9 5.9-2.2
2019-Jul-17 18:00S 52°42' W 073°42'1312.5 020 / 11994.9 5.8-3.3
2019-Jul-17 17:00S 52°30' W 073°36'1212.0 360 / 8995.7 5.4-3.1
2019-Jul-17 16:00S 52°18' W 073°36'0 0.0 060 / 6995.9 5.8-3.9
2019-Jul-17 15:00S 52°18' W 073°36'6 6.0 060 / 6996.0 5.1-4.1
2019-Jul-17 14:00S 52°12' W 073°36'1312.6 010 / 8996.1 4.9-3.0
2019-Jul-17 13:00S 52°00' W 073°42'1312.6 180 / 4996.6 5.2-0.8
2019-Jul-17 12:00S 51°48' W 073°36'10 9.5 130 / 3997.3 5.0-0.2
2019-Jul-17 11:00S 51°42' W 073°48'7 7.1 310 / 3998.2 4.8-0.4
2019-Jul-17 10:00S 51°36' W 073°54'1312.6 010 / 5999.4 4.9-0.5
2019-Jul-17 09:00S 51°24' W 074°00'1312.6 010 / 4999.8 5.6-0.9
2019-Jul-17 08:00S 51°12' W 074°06'1312.6 350 / 61001.0 5.4-0.6
2019-Jul-17 07:00S 51°00' W 074°12'1312.6 350 / 71002.0 5.3-1.3
2019-Jul-17 06:00S 50°48' W 074°18'10 9.7 310 / 61003.0 5.7-1.6
2019-Jul-17 05:00S 50°42' W 074°30'1414.2 030 / 71003.7 5.5-0.6
2019-Jul-17 04:00S 50°30' W 074°42'7 7.1 040 / 131004.3 5.7-0.0
2019-Jul-17 03:00S 50°24' W 074°48'1312.6 030 / 191005.3 5.5 0.3
2019-Jul-17 02:00S 50°12' W 074°42'1414.3 050 / 211006.2 5.2 0.8
2019-Jul-17 01:00S 50°00' W 074°30'10 9.8 040 / 121007.4 5.2 0.5
2019-Jul-17 00:00S 49°54' W 074°18'1212.0 010 / 101008.3 5.7 0.9
2019-Jul-16 23:00S 49°42' W 074°18'1312.6 010 / 101009.0 5.9 1.1
2019-Jul-16 22:00S 49°30' W 074°12'7 7.2 340 / 61009.8 6.2 1.3
2019-Jul-16 21:00S 49°24' W 074°18'1212.0 340 / 81010.2 6.1 1.9
2019-Jul-16 20:00S 49°12' W 074°18'1312.6 320 / 71010.7 7.0 2.5
2019-Jul-16 19:00S 49°00' W 074°24'1212.0 340 / 81010.9 5.9 2.5
2019-Jul-16 18:00S 48°48' W 074°24'6 6.0 010 / 91011.2 5.9 2.1
2019-Jul-16 17:00S 48°42' W 074°24'6 6.0 050 / 81011.4 5.8 2.6
2019-Jul-16 16:00S 48°36' W 074°24'1312.6 360 / 71011.5 6.0 2.3
2019-Jul-16 15:00S 48°24' W 074°30'1212.0 330 / 61011.2 6.3 2.3
2019-Jul-16 14:00S 48°12' W 074°30'1312.7 300 / 51010.6 5.9 2.4
2019-Jul-16 13:00S 48°00' W 074°36'1312.7 310 / 51010.9 6.3 2.8
2019-Jul-16 12:00S 47°48' W 074°42'6 6.0 320 / 31010.4 7.3 2.7
2019-Jul-16 11:00S 47°42' W 074°42'1414.5 320 / 41010.7 7.6 2.0
2019-Jul-16 10:00S 47°30' W 074°54'1010.1 280 / 71010.5 7.4 1.9
2019-Jul-16 09:00S 47°24' W 075°06'1010.1 260 / 101010.9 7.6 1.7
2019-Jul-16 08:00S 47°18' W 075°18'1514.5 250 / 111011.0 7.7 1.5
2019-Jul-16 07:00S 47°06' W 075°30'1010.1 260 / 121011.2 7.8 2.6
2019-Jul-16 06:00S 47°00' W 075°42'1212.0 260 / 141011.4 7.8 2.3
2019-Jul-16 05:00S 46°48' W 075°42'1312.7 260 / 141011.5 8.2 3.0
2019-Jul-16 04:00S 46°36' W 075°48'1010.2 270 / 141011.2 8.6 3.6
2019-Jul-16 03:00S 46°30' W 075°36'1212.0 280 / 221011.2 8.7 3.4
2019-Jul-16 02:00S 46°18' W 075°36'1514.6 270 / 191011.3 8.7 3.6
2019-Jul-16 01:00S 46°06' W 075°24'7 7.3 280 / 191011.8 9.3 4.0
2019-Jul-16 00:00S 46°00' W 075°18'1514.6 280 / 191012.2 10.1 4.2
2019-Jul-15 23:00S 45°48' W 075°06'8 8.4 280 / 141012.1 11.1 4.7
2019-Jul-15 22:00S 45°48' W 074°54'1413.9 280 / 181012.0 11.3 4.9
2019-Jul-15 21:00S 45°42' W 074°36'1010.3 310 / 221011.3 11.1 5.9
2019-Jul-15 20:00S 45°48' W 074°24'1010.3 300 / 121010.8 11.2 4.7
2019-Jul-15 19:00S 45°42' W 074°12'1312.7 320 / 91011.0 10.9 6.1
2019-Jul-15 18:00S 45°30' W 074°06'1212.0 280 / 181011.2 9.8 7.0
2019-Jul-15 17:00S 45°18' W 074°06'1010.3 310 / 261010.9 11.8 9.6
2019-Jul-15 16:00S 45°24' W 073°54'8 8.4 020 / 161011.6 9.4 8.2
2019-Jul-15 15:00S 45°24' W 073°42'1312.7 010 / 361012.3 8.8 7.6
2019-Jul-15 14:00S 45°12' W 073°36'1212.0 010 / 351013.6 8.7 7.5
2019-Jul-15 13:00S 45°00' W 073°36'1312.7 010 / 391014.9 9.1 7.3
2019-Jul-15 12:00S 44°48' W 073°30'1212.0 010 / 381016.3 9.5 7.1
2019-Jul-15 11:00S 44°36' W 073°30'1312.7 010 / 301018.1 9.8 6.8
2019-Jul-15 10:00S 44°24' W 073°24'1212.0 360 / 291019.3 9.8 6.7
2019-Jul-15 09:00S 44°12' W 073°24'1312.8 010 / 271019.8 9.7 6.4
2019-Jul-15 08:00S 44°00' W 073°18'1212.0 010 / 231021.1 9.7 5.8
2019-Jul-15 07:00S 43°48' W 073°18'1212.0 360 / 231022.3 9.7 5.9
2019-Jul-15 06:00S 43°36' W 073°18'1212.0 010 / 211022.7 9.7 5.9
2019-Jul-15 05:00S 43°24' W 073°18'1312.8 010 / 171023.2 9.6 5.7
2019-Jul-15 04:00S 43°12' W 073°12'1212.0 350 / 151023.2 9.4 5.1
2019-Jul-15 03:00S 43°00' W 073°12'6 6.0 340 / 101023.0 9.5 5.1
2019-Jul-15 02:00S 42°54' W 073°12'1212.0 320 / 91022.9 9.5 5.2
2019-Jul-15 01:00S 42°42' W 073°12'1312.8 310 / 101022.8 9.4 5.6
2019-Jul-15 00:00S 42°30' W 073°06'7 7.5 300 / 141022.6 9.7 5.7
2019-Jul-14 23:00S 42°24' W 073°00'1212.0 290 / 151021.9 10.0 5.7
2019-Jul-14 22:00S 42°12' W 073°00'1514.9 290 / 151021.4 10.3 5.7
2019-Jul-14 21:00S 42°00' W 073°12'7 7.5 280 / 151020.7 10.3 6.0
2019-Jul-14 20:00S 41°54' W 073°18'1110.8 270 / 161019.8 10.6 5.9
2019-Jul-14 19:00S 41°48' W 073°30'7 7.5 270 / 211019.1 10.8 5.8
2019-Jul-14 18:00S 41°42' W 073°36'4 4.5 270 / 231018.4 10.7 5.8
2019-Jul-14 17:00S 41°42' W 073°42'4 4.5 270 / 201017.9 10.4 6.1
2019-Jul-14 16:00S 41°42' W 073°48'4 4.5 260 / 241017.3 10.2 6.4
2019-Jul-14 15:00S 41°42' W 073°54'6 6.0 270 / 261016.2 11.0 6.6
2019-Jul-14 14:00S 41°36' W 073°54'0 0.0 270 / 271014.8 10.7 6.3
2019-Jul-14 13:00S 41°36' W 073°54'7 7.5 280 / 251014.2 9.8 5.7
2019-Jul-14 12:00S 41°30' W 074°00'1212.0 270 / 221014.2 9.8 5.6
2019-Jul-14 11:00S 41°18' W 074°00'1212.0 270 / 221013.8 10.0 5.7
2019-Jul-14 10:00S 41°06' W 074°00'1212.0 270 / 221013.4 10.7 5.6
2019-Jul-14 09:00S 40°54' W 074°00'6 6.0 260 / 241013.2 10.7 4.9
2019-Jul-14 08:00S 40°48' W 074°00'1212.0 260 / 251012.6 10.9 5.8
2019-Jul-14 07:00S 40°36' W 074°00'1312.8 300 / 321010.8 10.6 8.7
2019-Jul-14 06:00S 40°24' W 073°54'1212.0 340 / 331012.4 11.1 9.1
2019-Jul-14 05:00S 40°12' W 073°54'1212.0 340 / 301013.8 11.2 9.1
2019-Jul-14 04:00S 40°00' W 073°54'1312.9 340 / 301014.9 11.7 9.4
2019-Jul-14 03:00S 39°48' W 073°48'8 7.6 340 / 231015.8 11.7 9.4
2019-Jul-14 02:00S 39°42' W 073°42'1111.0 340 / 221016.7 11.5 9.1
2019-Jul-14 01:00S 39°36' W 073°30'1312.9 350 / 211017.9 11.9 9.7
2019-Jul-14 00:00S 39°24' W 073°24'1212.0 340 / 201018.6 11.9 9.5
2019-Jul-13 23:00S 39°12' W 073°24'1312.9 330 / 181019.0 12.0 9.7
2019-Jul-13 22:00S 39°00' W 073°30'1312.9 330 / 181019.0 12.0 9.4
2019-Jul-13 21:00S 38°48' W 073°36'8 7.6 330 / 191019.3 12.1 9.5
2019-Jul-13 20:00S 38°42' W 073°42'1312.9 330 / 171019.4 12.6 9.6
2019-Jul-13 19:00S 38°30' W 073°48'9 9.4 330 / 161019.2 13.1 9.8
2019-Jul-13 18:00S 38°30' W 074°00'1212.0 330 / 161019.9 12.5 9.7
2019-Jul-13 17:00S 38°18' W 074°00'8 7.6 340 / 161020.4 12.6 9.7
2019-Jul-13 16:00S 38°12' W 073°54'9 9.4 350 / 171020.7 12.2 9.6
2019-Jul-13 15:00S 38°12' W 073°42'1312.9 010 / 151020.4 11.7 9.5
2019-Jul-13 14:00S 38°00' W 073°36'8 7.6 360 / 121020.0 12.7 9.0
2019-Jul-13 13:00S 37°54' W 073°42'1312.9 340 / 101019.7 12.6 8.8
2019-Jul-13 12:00S 37°42' W 073°48'1212.0 310 / 81019.0 12.3 8.5
2019-Jul-13 11:00S 37°30' W 073°48'1212.0 310 / 81018.5 12.2 8.9
2019-Jul-13 10:00S 37°18' W 073°48'1312.9 280 / 91018.2 12.2 9.4
2019-Jul-13 09:00S 37°06' W 073°42'8 7.7 270 / 111017.9 12.2 9.2
2019-Jul-13 08:00S 37°00' W 073°36'1312.9 280 / 121017.8 12.510.0
2019-Jul-13 07:00S 36°48' W 073°30'1111.3 320 / 111017.6 12.210.6
2019-Jul-13 06:00S 36°42' W 073°18'1312.9 010 / 191017.4 11.810.6
2019-Jul-13 05:00S 36°30' W 073°12'10 9.6 020 / 191017.8 11.710.4
2019-Jul-13 04:00S 36°30' W 073°00'1312.9 030 / 231017.5 12.210.1
2019-Jul-13 03:00S 36°42' W 072°54'0 0.0 010 / 161017.7 11.9 9.2
2019-Jul-13 02:00S 36°42' W 072°54'0 0.0 010 / 161017.6 11.8 9.2
2019-Jul-13 01:00S 36°42' W 072°54'0 0.0 010 / 161017.8 12.0 9.4
2019-Jul-13 00:00S 36°42' W 072°54'0 0.0 020 / 101017.7 11.9 9.5
2019-Jul-12 23:00S 36°42' W 072°54'0 0.0 030 / 91017.5 11.8 9.4
2019-Jul-12 22:00S 36°42' W 072°54'0 0.0 020 / 101017.6 12.4 9.4
2019-Jul-12 21:00S 36°42' W 072°54'0 0.0 350 / 121017.7 12.4 9.6
2019-Jul-12 20:00S 36°42' W 072°54'0 0.0 350 / 121017.9 12.3 9.8
2019-Jul-12 19:00S 36°42' W 072°54'0 0.0 350 / 121018.3 12.3 9.8
2019-Jul-12 18:00S 36°42' W 072°54'   010 / 131018.8 13.1 9.9
Track history (hours):
 
Tides and Currents Weather Stations Pressure Air Temp Water Temp Dewpoint Dewpoint Depression Visibility Wind Speed Wind Dir Waves Ship Positions

Oceanographic research ship Laurence M. Gould (USA)

Detailed information on ship capabilities available from University of Delaware's Ocean Information Center.

Owner: Offshore Service Vessels LLC, Cut Off, LA. More information available from US FCC via Universal Licensing System and Coast Guard Vessel Documentation Center.

Last reported at 2019-Jul-22 18:00 UTC. Time now 2019-Jul-22 18:37 UTC.
Position S 53°06' W 070°54'.

Type: Ship. MMSI: 368138000.

Wind from 280 at 19 knots

Barometer 997.4 mb
Air temperature 4.0 ° C
Dewpoint 0.7 ° C

Date/timePositionNaut miles runAvg speedWind from/ knotsBaromVisibWave heightAir tempDewpointWater temp
2019-Jul-22 18:00S 53°06' W 070°54'0 0.0 280 / 19997.4 4.0 0.7
2019-Jul-22 17:00S 53°06' W 070°54'0 0.0 280 / 23997.3 5.0 0.4
2019-Jul-22 16:00S 53°06' W 070°54'0 0.0 270 / 24997.8 5.3 0.6
2019-Jul-22 15:00S 53°06' W 070°54'0 0.0 270 / 24997.4 5.1 0.6
2019-Jul-22 14:00S 53°06' W 070°54'0 0.0 270 / 21997.3 4.8 0.9
2019-Jul-22 13:00S 53°06' W 070°54'0 0.0 270 / 23996.8 4.5 0.8
2019-Jul-22 12:00S 53°06' W 070°54'0 0.0 270 / 23996.7 4.3 0.9
2019-Jul-22 11:00S 53°06' W 070°54'0 0.0 270 / 21996.9 4.4 0.7
2019-Jul-22 10:00S 53°06' W 070°54'0 0.0 280 / 15996.9 4.3 0.4
2019-Jul-22 09:00S 53°06' W 070°54'0 0.0 290 / 11997.2 4.1 0.3
2019-Jul-22 08:00S 53°06' W 070°54'0 0.0 300 / 10997.0 3.8 0.4
2019-Jul-22 07:00S 53°06' W 070°54'0 0.0 300 / 12996.7 3.7 0.3
2019-Jul-22 06:00S 53°06' W 070°54'0 0.0 280 / 13996.6 3.6-0.1
2019-Jul-22 05:00S 53°06' W 070°54'0 0.0 280 / 9996.8 3.3-0.4
2019-Jul-22 04:00S 53°06' W 070°54'0 0.0 280 / 10996.8 3.2-0.7
2019-Jul-22 03:00S 53°06' W 070°54'0 0.0 280 / 11996.3 3.3-0.6
2019-Jul-22 02:00S 53°06' W 070°54'0 0.0 270 / 14995.8 3.5-0.2
2019-Jul-22 01:00S 53°06' W 070°54'0 0.0 280 / 15995.5 3.4-0.2
2019-Jul-22 00:00S 53°06' W 070°54'0 0.0 270 / 15995.1 3.4-0.8
2019-Jul-21 23:00S 53°06' W 070°54'0 0.0 280 / 7995.2 3.5-1.9
2019-Jul-21 22:00S 53°06' W 070°54'0 0.0 310 / 3995.1 3.5-2.5
2019-Jul-21 21:00S 53°06' W 070°54'0 0.0 270 / 8994.4 3.8-2.0
2019-Jul-21 20:00S 53°06' W 070°54'0 0.0 270 / 11993.6 3.7-1.4
2019-Jul-21 19:00S 53°06' W 070°54'0 0.0 270 / 10993.4 4.2-1.3
2019-Jul-21 18:00S 53°06' W 070°54'0 0.0 280 / 8993.6 4.5-1.2
2019-Jul-21 17:00S 53°06' W 070°54'0 0.0 280 / 8993.6 4.9-1.8
2019-Jul-21 16:00S 53°06' W 070°54'0 0.0 270 / 9993.4 4.7-2.1
2019-Jul-21 15:00S 53°06' W 070°54'0 0.0 260 / 10992.8 4.6-0.9
2019-Jul-21 14:00S 53°06' W 070°54'0 0.0 270 / 8991.9 3.2-0.6
2019-Jul-21 13:00S 53°06' W 070°54'0 0.0 280 / 6990.7 3.1-0.8
2019-Jul-21 12:00S 53°06' W 070°54'0 0.0 280 / 9989.9 3.3-0.7
2019-Jul-21 11:00S 53°06' W 070°54'0 0.0 280 / 12989.1 3.2-0.4
2019-Jul-21 10:00S 53°06' W 070°54'0 0.0 260 / 12988.5 3.4-0.5
2019-Jul-21 09:00S 53°06' W 070°54'0 0.0 260 / 10988.0 3.3-0.7
2019-Jul-21 08:00S 53°06' W 070°54'0 0.0 270 / 6987.4 2.9-1.0
2019-Jul-21 07:00S 53°06' W 070°54'0 0.0 280 / 7986.8 1.9-1.4
2019-Jul-21 06:00S 53°06' W 070°54'0 0.0 280 / 9986.4 2.1-1.3
2019-Jul-21 05:00S 53°06' W 070°54'0 0.0 260 / 8986.0 2.3-1.2
2019-Jul-21 04:00S 53°06' W 070°54'0 0.0 220 / 4985.0 2.4-1.1
2019-Jul-21 03:00S 53°06' W 070°54'0 0.0 240 / 4983.9 2.7-0.4
2019-Jul-21 02:00S 53°06' W 070°54'0 0.0 220 / 11982.7 3.1-0.0
2019-Jul-21 01:00S 53°06' W 070°54'0 0.0 210 / 13981.8 2.7 0.6
2019-Jul-21 00:00S 53°06' W 070°54'0 0.0 220 / 5980.8 2.5 1.1
2019-Jul-20 23:00S 53°06' W 070°54'0 0.0 030 / 7980.2 1.7 0.4
2019-Jul-20 22:00S 53°06' W 070°54'0 0.0 020 / 9980.2 2.2-0.5
2019-Jul-20 21:00S 53°06' W 070°54'0 0.0 020 / 9980.8 3.5-1.2
2019-Jul-20 20:00S 53°06' W 070°54'0 0.0 020 / 12981.4 3.7-1.5
2019-Jul-20 19:00S 53°06' W 070°54'0 0.0 030 / 9982.1 3.2-1.4
2019-Jul-20 18:00S 53°06' W 070°54'0 0.0 010 / 9982.7 3.2-1.6
2019-Jul-20 17:00S 53°06' W 070°54'0 0.0 010 / 7983.7 3.5-1.6
2019-Jul-20 16:00S 53°06' W 070°54'0 0.0 010 / 7984.5 3.2-1.8
2019-Jul-20 15:00S 53°06' W 070°54'0 0.0 040 / 9985.2 1.8-1.6
2019-Jul-20 14:00S 53°06' W 070°54'0 0.0 350 / 7985.0 1.9-1.6
2019-Jul-20 13:00S 53°06' W 070°54'0 0.0 020 / 5985.0 1.9-1.5
2019-Jul-20 12:00S 53°06' W 070°54'0 0.0 020 / 7984.9 1.3-1.6
2019-Jul-20 11:00S 53°06' W 070°54'0 0.0 030 / 10984.8 1.4-2.0
2019-Jul-20 10:00S 53°06' W 070°54'0 0.0 040 / 10985.0 1.8-1.7
2019-Jul-20 09:00S 53°06' W 070°54'0 0.0 030 / 9985.4 2.3-1.5
2019-Jul-20 08:00S 53°06' W 070°54'0 0.0 040 / 6985.3 2.5-1.6
2019-Jul-20 07:00S 53°06' W 070°54'0 0.0 050 / 8985.5 2.7-1.4
2019-Jul-20 06:00S 53°06' W 070°54'0 0.0 040 / 7985.8 3.0-1.3
2019-Jul-20 05:00S 53°06' W 070°54'0 0.0 060 / 5986.1 3.0-1.2
2019-Jul-20 04:00S 53°06' W 070°54'0 0.0 020 / 5986.3 3.2-0.9
2019-Jul-20 03:00S 53°06' W 070°54'0 0.0 010 / 5986.0 3.7-0.6
2019-Jul-20 02:00S 53°06' W 070°54'0 0.0 320 / 6985.8 4.1-0.8
2019-Jul-20 01:00S 53°06' W 070°54'0 0.0 280 / 14985.1 3.7-0.8
2019-Jul-20 00:00S 53°06' W 070°54'0 0.0 260 / 10984.5 4.1-0.6
2019-Jul-19 23:00S 53°06' W 070°54'0 0.0 270 / 12983.6 4.0-0.5
2019-Jul-19 22:00S 53°06' W 070°54'0 0.0 270 / 12982.7 4.0-0.1
2019-Jul-19 21:00S 53°06' W 070°54'0 0.0 290 / 10981.8 4.5-0.2
2019-Jul-19 20:00S 53°06' W 070°54'0 0.0 320 / 7980.8 5.5-0.9
2019-Jul-19 19:00S 53°06' W 070°54'0 0.0 330 / 7980.6 6.1-1.3
2019-Jul-19 18:00S 53°06' W 070°54'0 0.0 030 / 7980.9 5.7-0.1
2019-Jul-19 17:00S 53°06' W 070°54'0 0.0 010 / 7980.3 5.5-0.0
2019-Jul-19 16:00S 53°06' W 070°54'0 0.0 030 / 9980.4 4.9-0.2
2019-Jul-19 15:00S 53°06' W 070°54'0 0.0 020 / 5980.4 5.5-0.8
2019-Jul-19 14:00S 53°06' W 070°54'0 0.0 030 / 9979.4 4.1-1.0
2019-Jul-19 13:00S 53°06' W 070°54'0 0.0 300 / 21977.7 3.8-0.7
2019-Jul-19 12:00S 53°06' W 070°54'0 0.0 290 / 23977.2 3.8-0.4
2019-Jul-19 11:00S 53°06' W 070°54'0 0.0 300 / 24976.9 3.5 0.1
2019-Jul-19 10:00S 53°06' W 070°54'0 0.0 310 / 27976.2 3.3 0.5
2019-Jul-19 09:00S 53°06' W 070°54'0 0.0 320 / 29975.8 3.0 0.4
2019-Jul-19 08:00S 53°06' W 070°54'0 0.0 350 / 13977.3 3.2-1.1
2019-Jul-19 07:00S 53°06' W 070°54'0 0.0 010 / 8977.9 2.2-1.1
2019-Jul-19 06:00S 53°06' W 070°54'0 0.0 030 / 10978.6 1.0-1.3
2019-Jul-19 05:00S 53°06' W 070°54'0 0.0 020 / 10979.5 1.5-1.3
2019-Jul-19 04:00S 53°06' W 070°54'0 0.0 020 / 6980.3 1.8-0.4
2019-Jul-19 03:00S 53°06' W 070°54'0 0.0 020 / 6981.1 2.3 0.1
2019-Jul-19 02:00S 53°06' W 070°54'0 0.0 020 / 10981.3 2.1 0.2
2019-Jul-19 01:00S 53°06' W 070°54'0 0.0 020 / 7981.8 2.4 0.3
2019-Jul-19 00:00S 53°06' W 070°54'0 0.0 350 / 4982.0 2.6 0.1
2019-Jul-18 23:00S 53°06' W 070°54'0 0.0 040 / 7983.4 2.5-0.0
2019-Jul-18 22:00S 53°06' W 070°54'0 0.0 030 / 6983.8 3.2-0.3
2019-Jul-18 21:00S 53°06' W 070°54'0 0.0 020 / 7984.3 3.5-1.1
2019-Jul-18 20:00S 53°06' W 070°54'0 0.0 030 / 10985.3 3.9-1.8
2019-Jul-18 19:00S 53°06' W 070°54'0 0.0 020 / 12985.9 4.7-2.2
2019-Jul-18 18:00S 53°06' W 070°54'0 0.0 020 / 17988.1 4.5-1.8
2019-Jul-18 17:00S 53°06' W 070°54'0 0.0 030 / 12990.5 3.6-1.3
2019-Jul-18 16:00S 53°06' W 070°54'0 0.0 020 / 10992.2 2.3-0.7
2019-Jul-18 15:00S 53°06' W 070°54'0 0.0 020 / 8993.2 1.7-1.3
2019-Jul-18 14:00S 53°06' W 070°54'0 0.0 020 / 5994.1 1.4-1.4
2019-Jul-18 13:00S 53°06' W 070°54'0 0.0 010 / 7994.7 1.9-1.3
2019-Jul-18 12:00S 53°06' W 070°54'7 7.0 350 / 9995.6 4.1-0.3
2019-Jul-18 11:00S 53°12' W 070°48'1212.0 020 / 7996.2 4.6 0.2
2019-Jul-18 10:00S 53°24' W 070°48'6 6.0 350 / 6996.7 3.4-0.0
2019-Jul-18 09:00S 53°30' W 070°48'1212.0 330 / 6997.0 2.8-0.4
2019-Jul-18 08:00S 53°42' W 070°48'7 7.0 010 / 4997.0 3.5-0.8
2019-Jul-18 07:00S 53°48' W 070°54'7 7.1 350 / 6997.2 2.9-1.2
2019-Jul-18 06:00S 53°48' W 071°06'1110.6 020 / 4997.3 4.4-2.2
2019-Jul-18 05:00S 53°48' W 071°24'7 7.1 330 / 4997.5 4.5-1.9
2019-Jul-18 04:00S 53°48' W 071°36'9 9.3 350 / 7996.9 4.5-2.1
2019-Jul-18 03:00S 53°42' W 071°48'7 7.1 320 / 8996.8 4.3-1.9
2019-Jul-18 02:00S 53°42' W 072°00'1616.1 340 / 11996.9 3.6-1.6
2019-Jul-18 01:00S 53°30' W 072°18'1110.7 020 / 8996.4 4.0-1.4
2019-Jul-18 00:00S 53°30' W 072°36'1212.3 110 / 11995.5 4.6-1.3
2019-Jul-17 23:00S 53°24' W 072°54'1414.0 140 / 15994.6 6.1-1.5
2019-Jul-17 22:00S 53°12' W 073°06'9 9.4 080 / 9994.4 5.6-2.3
2019-Jul-17 21:00S 53°06' W 073°18'1212.4 120 / 9993.8 6.7-1.4
2019-Jul-17 20:00S 53°00' W 073°36'9 9.4 020 / 12993.3 6.0-2.6
2019-Jul-17 19:00S 52°54' W 073°48'1312.5 050 / 14993.9 5.9-2.2
2019-Jul-17 18:00S 52°42' W 073°42'1312.5 020 / 11994.9 5.8-3.3
2019-Jul-17 17:00S 52°30' W 073°36'1212.0 360 / 8995.7 5.4-3.1
2019-Jul-17 16:00S 52°18' W 073°36'0 0.0 060 / 6995.9 5.8-3.9
2019-Jul-17 15:00S 52°18' W 073°36'6 6.0 060 / 6996.0 5.1-4.1
2019-Jul-17 14:00S 52°12' W 073°36'1312.6 010 / 8996.1 4.9-3.0
2019-Jul-17 13:00S 52°00' W 073°42'1312.6 180 / 4996.6 5.2-0.8
2019-Jul-17 12:00S 51°48' W 073°36'10 9.5 130 / 3997.3 5.0-0.2
2019-Jul-17 11:00S 51°42' W 073°48'7 7.1 310 / 3998.2 4.8-0.4
2019-Jul-17 10:00S 51°36' W 073°54'1312.6 010 / 5999.4 4.9-0.5
2019-Jul-17 09:00S 51°24' W 074°00'1312.6 010 / 4999.8 5.6-0.9
2019-Jul-17 08:00S 51°12' W 074°06'1312.6 350 / 61001.0 5.4-0.6
2019-Jul-17 07:00S 51°00' W 074°12'1312.6 350 / 71002.0 5.3-1.3
2019-Jul-17 06:00S 50°48' W 074°18'10 9.7 310 / 61003.0 5.7-1.6
2019-Jul-17 05:00S 50°42' W 074°30'1414.2 030 / 71003.7 5.5-0.6
2019-Jul-17 04:00S 50°30' W 074°42'7 7.1 040 / 131004.3 5.7-0.0
2019-Jul-17 03:00S 50°24' W 074°48'1312.6 030 / 191005.3 5.5 0.3
2019-Jul-17 02:00S 50°12' W 074°42'1414.3 050 / 211006.2 5.2 0.8
2019-Jul-17 01:00S 50°00' W 074°30'10 9.8 040 / 121007.4 5.2 0.5
2019-Jul-17 00:00S 49°54' W 074°18'1212.0 010 / 101008.3 5.7 0.9
2019-Jul-16 23:00S 49°42' W 074°18'1312.6 010 / 101009.0 5.9 1.1
2019-Jul-16 22:00S 49°30' W 074°12'7 7.2 340 / 61009.8 6.2 1.3
2019-Jul-16 21:00S 49°24' W 074°18'1212.0 340 / 81010.2 6.1 1.9
2019-Jul-16 20:00S 49°12' W 074°18'1312.6 320 / 71010.7 7.0 2.5
2019-Jul-16 19:00S 49°00' W 074°24'1212.0 340 / 81010.9 5.9 2.5
2019-Jul-16 18:00S 48°48' W 074°24'6 6.0 010 / 91011.2 5.9 2.1
2019-Jul-16 17:00S 48°42' W 074°24'6 6.0 050 / 81011.4 5.8 2.6
2019-Jul-16 16:00S 48°36' W 074°24'1312.6 360 / 71011.5 6.0 2.3
2019-Jul-16 15:00S 48°24' W 074°30'1212.0 330 / 61011.2 6.3 2.3
2019-Jul-16 14:00S 48°12' W 074°30'1312.7 300 / 51010.6 5.9 2.4
2019-Jul-16 13:00S 48°00' W 074°36'1312.7 310 / 51010.9 6.3 2.8
2019-Jul-16 12:00S 47°48' W 074°42'6 6.0 320 / 31010.4 7.3 2.7
2019-Jul-16 11:00S 47°42' W 074°42'1414.5 320 / 41010.7 7.6 2.0
2019-Jul-16 10:00S 47°30' W 074°54'1010.1 280 / 71010.5 7.4 1.9
2019-Jul-16 09:00S 47°24' W 075°06'1010.1 260 / 101010.9 7.6 1.7
2019-Jul-16 08:00S 47°18' W 075°18'1514.5 250 / 111011.0 7.7 1.5
2019-Jul-16 07:00S 47°06' W 075°30'1010.1 260 / 121011.2 7.8 2.6
2019-Jul-16 06:00S 47°00' W 075°42'1212.0 260 / 141011.4 7.8 2.3
2019-Jul-16 05:00S 46°48' W 075°42'1312.7 260 / 141011.5 8.2 3.0
2019-Jul-16 04:00S 46°36' W 075°48'1010.2 270 / 141011.2 8.6 3.6
2019-Jul-16 03:00S 46°30' W 075°36'1212.0 280 / 221011.2 8.7 3.4
2019-Jul-16 02:00S 46°18' W 075°36'1514.6 270 / 191011.3 8.7 3.6
2019-Jul-16 01:00S 46°06' W 075°24'7 7.3 280 / 191011.8 9.3 4.0
2019-Jul-16 00:00S 46°00' W 075°18'1514.6 280 / 191012.2 10.1 4.2
2019-Jul-15 23:00S 45°48' W 075°06'8 8.4 280 / 141012.1 11.1 4.7
2019-Jul-15 22:00S 45°48' W 074°54'1413.9 280 / 181012.0 11.3 4.9
2019-Jul-15 21:00S 45°42' W 074°36'1010.3 310 / 221011.3 11.1 5.9
2019-Jul-15 20:00S 45°48' W 074°24'1010.3 300 / 121010.8 11.2 4.7
2019-Jul-15 19:00S 45°42' W 074°12'1312.7 320 / 91011.0 10.9 6.1
2019-Jul-15 18:00S 45°30' W 074°06'1212.0 280 / 181011.2 9.8 7.0
2019-Jul-15 17:00S 45°18' W 074°06'1010.3 310 / 261010.9 11.8 9.6
2019-Jul-15 16:00S 45°24' W 073°54'8 8.4 020 / 161011.6 9.4 8.2
2019-Jul-15 15:00S 45°24' W 073°42'1312.7 010 / 361012.3 8.8 7.6
2019-Jul-15 14:00S 45°12' W 073°36'1212.0 010 / 351013.6 8.7 7.5
2019-Jul-15 13:00S 45°00' W 073°36'1312.7 010 / 391014.9 9.1 7.3
2019-Jul-15 12:00S 44°48' W 073°30'1212.0 010 / 381016.3 9.5 7.1
2019-Jul-15 11:00S 44°36' W 073°30'1312.7 010 / 301018.1 9.8 6.8
2019-Jul-15 10:00S 44°24' W 073°24'1212.0 360 / 291019.3 9.8 6.7
2019-Jul-15 09:00S 44°12' W 073°24'1312.8 010 / 271019.8 9.7 6.4
2019-Jul-15 08:00S 44°00' W 073°18'1212.0 010 / 231021.1 9.7 5.8
2019-Jul-15 07:00S 43°48' W 073°18'1212.0 360 / 231022.3 9.7 5.9
2019-Jul-15 06:00S 43°36' W 073°18'1212.0 010 / 211022.7 9.7 5.9
2019-Jul-15 05:00S 43°24' W 073°18'1312.8 010 / 171023.2 9.6 5.7
2019-Jul-15 04:00S 43°12' W 073°12'1212.0 350 / 151023.2 9.4 5.1
2019-Jul-15 03:00S 43°00' W 073°12'6 6.0 340 / 101023.0 9.5 5.1
2019-Jul-15 02:00S 42°54' W 073°12'1212.0 320 / 91022.9 9.5 5.2
2019-Jul-15 01:00S 42°42' W 073°12'1312.8 310 / 101022.8 9.4 5.6
2019-Jul-15 00:00S 42°30' W 073°06'7 7.5 300 / 141022.6 9.7 5.7
2019-Jul-14 23:00S 42°24' W 073°00'1212.0 290 / 151021.9 10.0 5.7
2019-Jul-14 22:00S 42°12' W 073°00'1514.9 290 / 151021.4 10.3 5.7
2019-Jul-14 21:00S 42°00' W 073°12'7 7.5 280 / 151020.7 10.3 6.0
2019-Jul-14 20:00S 41°54' W 073°18'1110.8 270 / 161019.8 10.6 5.9
2019-Jul-14 19:00S 41°48' W 073°30'7 7.5 270 / 211019.1 10.8 5.8
2019-Jul-14 18:00S 41°42' W 073°36'4 4.5 270 / 231018.4 10.7 5.8
2019-Jul-14 17:00S 41°42' W 073°42'4 4.5 270 / 201017.9 10.4 6.1
2019-Jul-14 16:00S 41°42' W 073°48'4 4.5 260 / 241017.3 10.2 6.4
2019-Jul-14 15:00S 41°42' W 073°54'6 6.0 270 / 261016.2 11.0 6.6
2019-Jul-14 14:00S 41°36' W 073°54'0 0.0 270 / 271014.8 10.7 6.3
2019-Jul-14 13:00S 41°36' W 073°54'7 7.5 280 / 251014.2 9.8 5.7
2019-Jul-14 12:00S 41°30' W 074°00'1212.0 270 / 221014.2 9.8 5.6
2019-Jul-14 11:00S 41°18' W 074°00'1212.0 270 / 221013.8 10.0 5.7
2019-Jul-14 10:00S 41°06' W 074°00'1212.0 270 / 221013.4 10.7 5.6
2019-Jul-14 09:00S 40°54' W 074°00'6 6.0 260 / 241013.2 10.7 4.9
2019-Jul-14 08:00S 40°48' W 074°00'1212.0 260 / 251012.6 10.9 5.8
2019-Jul-14 07:00S 40°36' W 074°00'1312.8 300 / 321010.8 10.6 8.7
2019-Jul-14 06:00S 40°24' W 073°54'1212.0 340 / 331012.4 11.1 9.1
2019-Jul-14 05:00S 40°12' W 073°54'1212.0 340 / 301013.8 11.2 9.1
2019-Jul-14 04:00S 40°00' W 073°54'1312.9 340 / 301014.9 11.7 9.4
2019-Jul-14 03:00S 39°48' W 073°48'8 7.6 340 / 231015.8 11.7 9.4
2019-Jul-14 02:00S 39°42' W 073°42'1111.0 340 / 221016.7 11.5 9.1
2019-Jul-14 01:00S 39°36' W 073°30'1312.9 350 / 211017.9 11.9 9.7
2019-Jul-14 00:00S 39°24' W 073°24'1212.0 340 / 201018.6 11.9 9.5
2019-Jul-13 23:00S 39°12' W 073°24'1312.9 330 / 181019.0 12.0 9.7
2019-Jul-13 22:00S 39°00' W 073°30'1312.9 330 / 181019.0 12.0 9.4
2019-Jul-13 21:00S 38°48' W 073°36'8 7.6 330 / 191019.3 12.1 9.5
2019-Jul-13 20:00S 38°42' W 073°42'1312.9 330 / 171019.4 12.6 9.6
2019-Jul-13 19:00S 38°30' W 073°48'9 9.4 330 / 161019.2 13.1 9.8
2019-Jul-13 18:00S 38°30' W 074°00'1212.0 330 / 161019.9 12.5 9.7
2019-Jul-13 17:00S 38°18' W 074°00'8 7.6 340 / 161020.4 12.6 9.7
2019-Jul-13 16:00S 38°12' W 073°54'9 9.4 350 / 171020.7 12.2 9.6
2019-Jul-13 15:00S 38°12' W 073°42'1312.9 010 / 151020.4 11.7 9.5
2019-Jul-13 14:00S 38°00' W 073°36'8 7.6 360 / 121020.0 12.7 9.0
2019-Jul-13 13:00S 37°54' W 073°42'1312.9 340 / 101019.7 12.6 8.8
2019-Jul-13 12:00S 37°42' W 073°48'1212.0 310 / 81019.0 12.3 8.5
2019-Jul-13 11:00S 37°30' W 073°48'1212.0 310 / 81018.5 12.2 8.9
2019-Jul-13 10:00S 37°18' W 073°48'1312.9 280 / 91018.2 12.2 9.4
2019-Jul-13 09:00S 37°06' W 073°42'8 7.7 270 / 111017.9 12.2 9.2
2019-Jul-13 08:00S 37°00' W 073°36'1312.9 280 / 121017.8 12.510.0
2019-Jul-13 07:00S 36°48' W 073°30'1111.3 320 / 111017.6 12.210.6
2019-Jul-13 06:00S 36°42' W 073°18'1312.9 010 / 191017.4 11.810.6
2019-Jul-13 05:00S 36°30' W 073°12'10 9.6 020 / 191017.8 11.710.4
2019-Jul-13 04:00S 36°30' W 073°00'1312.9 030 / 231017.5 12.210.1
2019-Jul-13 03:00S 36°42' W 072°54'0 0.0 010 / 161017.7 11.9 9.2
2019-Jul-13 02:00S 36°42' W 072°54'0 0.0 010 / 161017.6 11.8 9.2
2019-Jul-13 01:00S 36°42' W 072°54'0 0.0 010 / 161017.8 12.0 9.4
2019-Jul-13 00:00S 36°42' W 072°54'0 0.0 020 / 101017.7 11.9 9.5
2019-Jul-12 23:00S 36°42' W 072°54'0 0.0 030 / 91017.5 11.8 9.4
2019-Jul-12 22:00S 36°42' W 072°54'0 0.0 020 / 101017.6 12.4 9.4
2019-Jul-12 21:00S 36°42' W 072°54'0 0.0 350 / 121017.7 12.4 9.6
2019-Jul-12 20:00S 36°42' W 072°54'0 0.0 350 / 121017.9 12.3 9.8
2019-Jul-12 19:00S 36°42' W 072°54'0 0.0 350 / 121018.3 12.3 9.8
2019-Jul-12 18:00S 36°42' W 072°54'   010 / 131018.8 13.1 9.9

Dump ship's entire track history